Time;durP1;ratioP1;P1;durP2;ratioP2;P2;SDS_P1;SDS_P2;PMS_P1;PMS_P2;Temp;Humidity;BMP_temperature;BMP_pressure;BME280_temperature;BME280_humidity;BME280_pressure;Samples;Min_cycle;Max_cycle;Signal;HPM_P1;HPM_P2
2023/08/01 00:01:37;;;;;;;5.70;1.50;;;16.80;99.90;;;;;;5079684;28;20214;-90
2023/08/01 00:04:11;;;;;;;4.10;1.10;;;16.80;99.90;;;;;;5100009;28;20226;-90
2023/08/01 00:06:42;;;;;;;6.20;1.08;;;16.90;99.90;;;;;;5082983;28;20226;-89
2023/08/01 00:09:14;;;;;;;4.22;1.42;;;17.00;99.90;;;;;;5091060;28;20566;-90
2023/08/01 00:11:47;;;;;;;3.40;1.00;;;17.10;99.90;;;;;;5092818;28;20203;-89
2023/08/01 00:14:20;;;;;;;3.10;1.05;;;17.20;99.90;;;;;;5092607;28;20199;-89
2023/08/01 00:16:51;;;;;;;2.67;0.90;;;17.40;99.90;;;;;;5071766;28;20603;-88
2023/08/01 00:19:26;;;;;;;4.65;1.17;;;17.40;99.90;;;;;;5071800;28;20204;-90
2023/08/01 00:21:57;;;;;;;4.60;1.38;;;17.50;99.90;;;;;;5071541;28;20729;-90
2023/08/01 00:24:29;;;;;;;5.15;1.27;;;17.60;99.90;;;;;;5070171;28;20204;-89
2023/08/01 00:27:00;;;;;;;3.63;1.13;;;17.70;99.90;;;;;;5073704;28;20192;-89
2023/08/01 00:29:32;;;;;;;5.57;1.00;;;17.80;99.90;;;;;;5075690;28;20199;-88
2023/08/01 00:32:04;;;;;;;1.90;0.93;;;17.90;99.90;;;;;;5081088;28;20195;-89
2023/08/01 00:34:40;;;;;;;3.95;0.98;;;18.00;99.60;;;;;;5095712;28;20199;-89
2023/08/01 00:37:12;;;;;;;7.07;1.02;;;17.90;98.70;;;;;;5075205;28;20195;-90
2023/08/01 00:39:44;;;;;;;3.78;1.10;;;17.90;99.40;;;;;;5075856;28;20203;-90
2023/08/01 00:42:15;;;;;;;3.85;1.30;;;18.00;98.80;;;;;;5074961;28;20239;-91
2023/08/01 00:44:47;;;;;;;2.25;0.80;;;18.10;98.20;;;;;;5075225;28;20298;-89
2023/08/01 00:47:19;;;;;;;3.38;0.90;;;18.30;98.30;;;;;;5075477;28;20607;-90
2023/08/01 00:49:54;;;;;;;3.45;0.98;;;18.20;97.10;;;;;;5075873;28;20269;-89
2023/08/01 00:52:26;;;;;;;4.35;0.95;;;18.30;98.00;;;;;;5074205;28;20199;-89
2023/08/01 00:54:58;;;;;;;3.33;0.98;;;18.40;98.40;;;;;;5075081;28;20655;-91
2023/08/01 00:57:32;;;;;;;6.25;1.13;;;18.50;96.90;;;;;;5074794;28;20200;-90
2023/08/01 01:00:03;;;;;;;6.93;1.50;;;18.60;95.70;;;;;;5076468;28;20223;-92
2023/08/01 01:02:35;;;;;;;4.13;1.00;;;18.50;95.30;;;;;;5087621;28;20203;-92
2023/08/01 01:05:10;;;;;;;3.25;1.10;;;18.60;95.30;;;;;;5098344;28;20226;-91
2023/08/01 01:07:42;;;;;;;5.03;1.17;;;18.70;95.30;;;;;;5074284;28;20227;-91
2023/08/01 01:10:13;;;;;;;2.45;1.17;;;18.70;94.10;;;;;;5075088;28;20196;-91
2023/08/01 01:12:45;;;;;;;4.20;1.20;;;18.70;94.80;;;;;;5076490;28;20207;-90
2023/08/01 01:15:17;;;;;;;2.80;1.02;;;18.90;94.80;;;;;;5095100;28;20175;-90
2023/08/01 01:17:48;;;;;;;2.17;1.13;;;18.90;93.20;;;;;;5101889;28;20188;-89
2023/08/01 01:20:26;;;;;;;2.60;0.85;;;18.80;93.80;;;;;;5095398;28;20206;-89
2023/08/01 01:23:00;;;;;;;3.10;0.93;;;18.90;93.20;;;;;;5096114;28;20230;-90
2023/08/01 01:25:36;;;;;;;3.13;0.90;;;19.00;93.30;;;;;;5094205;28;20210;-91
2023/08/01 01:28:10;;;;;;;4.28;1.15;;;19.20;93.80;;;;;;5082926;28;20215;-90
2023/08/01 01:30:42;;;;;;;3.30;1.10;;;19.20;92.70;;;;;;5077947;28;20206;-91
2023/08/01 01:33:15;;;;;;;4.60;1.08;;;19.30;92.70;;;;;;5076979;28;20204;-90
2023/08/01 01:35:47;;;;;;;5.80;1.00;;;19.30;92.20;;;;;;5075535;28;20617;-90
2023/08/01 01:38:23;;;;;;;4.25;0.90;;;19.50;91.90;;;;;;5089729;28;20732;-91
2023/08/01 01:40:54;;;;;;;4.55;1.15;;;19.50;91.90;;;;;;5092240;28;20206;-89
2023/08/01 01:43:25;;;;;;;3.55;1.17;;;19.50;90.50;;;;;;5094529;28;20200;-87
2023/08/01 01:45:56;;;;;;;3.58;0.90;;;19.60;90.50;;;;;;5095588;28;20210;-90
2023/08/01 01:48:28;;;;;;;2.38;0.90;;;19.60;88.60;;;;;;5093843;28;20548;-89
2023/08/01 01:51:00;;;;;;;2.38;0.80;;;19.70;88.50;;;;;;5096409;28;20215;-89
2023/08/01 01:53:35;;;;;;;2.50;0.77;;;19.90;88.70;;;;;;5104326;28;20706;-90
2023/08/01 01:56:07;;;;;;;3.28;1.10;;;20.00;88.30;;;;;;5097147;28;20191;-89
2023/08/01 01:58:38;;;;;;;3.35;1.13;;;20.10;86.10;;;;;;5087590;28;20226;-88
2023/08/01 02:01:09;;;;;;;7.50;1.10;;;20.00;84.60;;;;;;5094345;28;20196;-89
2023/08/01 02:03:40;;;;;;;2.97;1.00;;;20.00;83.30;;;;;;5093525;28;20246;-88
2023/08/01 02:06:12;;;;;;;2.60;0.80;;;20.00;82.10;;;;;;5072274;28;20207;-89
2023/08/01 02:08:46;;;;;;;1.70;0.90;;;20.00;82.50;;;;;;5073130;28;20223;-88
2023/08/01 02:11:18;;;;;;;4.68;0.75;;;20.20;83.40;;;;;;5073439;28;20535;-89
2023/08/01 02:13:50;;;;;;;3.05;1.08;;;20.30;81.60;;;;;;5073412;28;20212;-89
2023/08/01 02:16:21;;;;;;;2.95;1.10;;;20.20;79.10;;;;;;5084709;28;20199;-89
2023/08/01 02:18:53;;;;;;;1.98;0.95;;;20.30;77.50;;;;;;5095290;28;20203;-89
2023/08/01 02:21:24;;;;;;;1.80;0.88;;;20.30;78.50;;;;;;5093630;28;20192;-89
2023/08/01 02:23:58;;;;;;;2.75;0.93;;;20.30;78.60;;;;;;5093927;28;20195;-89
2023/08/01 02:26:29;;;;;;;2.83;0.70;;;20.50;78.40;;;;;;5094375;28;20662;-92
2023/08/01 02:29:00;;;;;;;1.70;0.70;;;20.50;76.00;;;;;;5093314;28;20217;-89
2023/08/01 02:31:31;;;;;;;1.90;0.80;;;20.50;75.00;;;;;;5099904;28;20238;-88
2023/08/01 02:34:03;;;;;;;4.47;0.80;;;20.50;74.90;;;;;;5093986;28;20196;-87
2023/08/01 02:36:36;;;;;;;3.80;0.93;;;20.60;75.00;;;;;;5090293;28;20198;-87
2023/08/01 02:39:11;;;;;;;2.50;0.98;;;20.70;73.50;;;;;;5096175;28;20199;-88
2023/08/01 02:41:42;;;;;;;1.67;0.65;;;20.80;72.20;;;;;;5094971;28;20309;-88
2023/08/01 02:44:13;;;;;;;3.92;0.60;;;21.00;71.00;;;;;;5093117;28;20203;-89
2023/08/01 02:46:44;;;;;;;4.50;0.70;;;21.10;70.90;;;;;;5086898;28;20203;-88
2023/08/01 02:49:15;;;;;;;3.25;0.77;;;21.10;68.70;;;;;;5072939;28;20228;-88
2023/08/01 02:51:46;;;;;;;1.88;0.80;;;20.90;69.40;;;;;;5073032;28;20196;-91
2023/08/01 02:54:21;;;;;;;5.20;1.00;;;21.00;70.30;;;;;;5074072;28;20203;-91
2023/08/01 02:56:51;;;;;;;1.25;0.75;;;21.20;70.90;;;;;;5072771;28;20201;-90
2023/08/01 02:59:22;;;;;;;3.35;0.80;;;21.30;71.40;;;;;;5074505;28;20257;-91
2023/08/01 03:01:53;;;;;;;3.53;0.88;;;21.40;72.00;;;;;;5074612;28;20207;-92
2023/08/01 03:04:24;;;;;;;3.25;0.90;;;21.40;69.80;;;;;;5085908;28;20227;-93
2023/08/01 03:06:56;;;;;;;3.25;1.20;;;21.50;68.50;;;;;;5073553;28;20737;-92
2023/08/01 03:09:29;;;;;;;2.53;1.00;;;21.60;68.30;;;;;;5075086;28;20243;-92
2023/08/01 03:12:01;;;;;;;1.80;0.80;;;21.70;66.20;;;;;;5077968;28;20196;-90
2023/08/01 03:14:33;;;;;;;2.90;0.90;;;21.80;65.20;;;;;;5107428;28;20207;-92
2023/08/01 03:17:08;;;;;;;3.25;1.27;;;21.80;63.90;;;;;;5111287;28;20214;-89
2023/08/01 03:19:41;;;;;;;3.47;0.82;;;21.90;62.70;;;;;;5106081;28;20278;-93
2023/08/01 03:22:13;;;;;;;2.72;0.98;;;21.90;62.60;;;;;;5094822;28;20249;-90
2023/08/01 03:24:46;;;;;;;2.47;0.85;;;21.90;61.00;;;;;;5101986;28;20199;-91
2023/08/01 03:27:18;;;;;;;2.15;0.80;;;21.90;60.20;;;;;;5101866;28;20199;-90
2023/08/01 03:29:49;;;;;;;2.45;0.70;;;21.90;59.10;;;;;;5096523;28;20219;-91
2023/08/01 03:32:20;;;;;;;4.03;0.70;;;21.90;58.70;;;;;;5095987;28;20210;-90
2023/08/01 03:34:51;;;;;;;2.33;0.85;;;21.80;58.70;;;;;;5093475;28;20588;-93
2023/08/01 03:37:23;;;;;;;3.75;0.90;;;21.80;59.30;;;;;;5093256;28;20196;-92
2023/08/01 03:39:58;;;;;;;3.17;1.25;;;21.80;59.20;;;;;;5084070;28;20203;-92
2023/08/01 03:42:29;;;;;;;4.07;0.82;;;21.80;59.60;;;;;;5093727;28;20684;-92
2023/08/01 03:45:01;;;;;;;3.15;1.10;;;21.80;58.90;;;;;;5095523;28;20223;-91
2023/08/01 03:47:32;;;;;;;2.50;0.95;;;21.80;58.70;;;;;;5115004;28;20217;-88
2023/08/01 03:50:03;;;;;;;1.75;0.80;;;21.70;58.20;;;;;;5116348;28;20219;-90
2023/08/01 03:52:36;;;;;;;2.67;0.90;;;21.80;58.30;;;;;;5108811;28;20221;-91
2023/08/01 03:55:11;;;;;;;1.48;0.50;;;21.80;58.40;;;;;;5093257;28;20206;-93
2023/08/01 03:57:46;;;;;;;2.53;0.90;;;21.80;58.50;;;;;;5092746;28;20210;-91
2023/08/01 04:00:19;;;;;;;1.55;0.70;;;21.80;58.00;;;;;;5083908;28;20202;-91
2023/08/01 04:02:51;;;;;;;2.15;0.65;;;21.80;58.00;;;;;;5098053;28;20227;-90
2023/08/01 04:05:24;;;;;;;2.10;0.70;;;21.70;58.70;;;;;;5097526;28;20511;-90
2023/08/01 04:07:57;;;;;;;3.85;0.80;;;21.70;60.90;;;;;;5098426;28;20682;-90
2023/08/01 04:10:33;;;;;;;3.15;0.80;;;21.80;63.10;;;;;;5084766;28;20203;-91
2023/08/01 04:13:05;;;;;;;1.85;0.70;;;21.60;65.20;;;;;;5080519;28;20199;-94
2023/08/01 04:15:38;;;;;;;2.53;0.80;;;21.60;65.90;;;;;;5093964;28;20222;-93
2023/08/01 04:18:10;;;;;;;2.05;0.90;;;21.50;63.50;;;;;;5078699;28;20200;-90
2023/08/01 04:20:44;;;;;;;1.75;0.70;;;21.50;62.60;;;;;;5077765;28;20677;-91
2023/08/01 04:23:15;;;;;;;2.63;0.70;;;21.50;61.40;;;;;;5080458;28;20191;-93
2023/08/01 04:25:59;;;;;;;2.60;0.70;;;21.50;59.40;;;;;;5088203;28;20200;-92
2023/08/01 04:28:30;;;;;;;2.80;0.55;;;21.40;59.60;;;;;;5103441;28;20227;-93
2023/08/01 04:31:02;;;;;;;1.75;0.60;;;21.40;58.80;;;;;;5099754;28;20383;-93
2023/08/01 04:33:35;;;;;;;2.15;0.77;;;21.40;58.50;;;;;;5096590;28;20230;-91
2023/08/01 04:36:07;;;;;;;1.73;0.60;;;21.40;58.00;;;;;;5096073;28;20563;-93
2023/08/01 04:38:38;;;;;;;1.63;0.70;;;21.40;57.50;;;;;;5097118;28;20576;-93
2023/08/01 04:41:13;;;;;;;2.15;0.60;;;21.40;57.30;;;;;;5097511;28;20219;-94
2023/08/01 04:43:45;;;;;;;2.35;0.55;;;21.40;56.70;;;;;;5098965;28;20201;-92
2023/08/01 04:46:17;;;;;;;3.58;0.80;;;21.20;57.00;;;;;;5101350;28;20186;-93
2023/08/01 04:48:48;;;;;;;4.57;0.73;;;21.20;57.40;;;;;;5096085;28;20230;-92
2023/08/01 04:51:19;;;;;;;2.20;0.80;;;21.20;57.30;;;;;;5077152;28;20192;-94
2023/08/01 04:53:50;;;;;;;3.30;0.88;;;21.20;56.70;;;;;;5077158;28;20212;-92
2023/08/01 04:56:23;;;;;;;2.05;0.63;;;21.20;57.60;;;;;;5076442;28;20271;-92
2023/08/01 04:58:54;;;;;;;2.80;0.77;;;21.20;58.00;;;;;;5077756;28;20283;-93
2023/08/01 05:01:26;;;;;;;2.65;1.00;;;21.20;59.40;;;;;;5084762;28;20247;-88
2023/08/01 05:03:58;;;;;;;4.10;0.80;;;21.30;61.40;;;;;;5100805;28;20279;-89
2023/08/01 05:06:29;;;;;;;1.33;0.70;;;21.30;62.30;;;;;;5117046;28;20206;-88
2023/08/01 05:09:01;;;;;;;2.92;0.70;;;21.20;61.60;;;;;;5113400;28;20261;-90
2023/08/01 05:11:34;;;;;;;1.33;0.70;;;21.10;62.30;;;;;;5101507;28;20191;-90
2023/08/01 05:14:05;;;;;;;3.60;0.90;;;21.10;62.80;;;;;;5079956;28;20199;-92
2023/08/01 05:16:37;;;;;;;1.35;0.60;;;21.10;63.30;;;;;;5085031;28;20218;-91
2023/08/01 05:19:08;;;;;;;2.55;0.80;;;20.90;63.20;;;;;;5077233;28;20210;-91
2023/08/01 05:21:41;;;;;;;3.63;0.80;;;20.90;63.30;;;;;;5085643;28;20283;-91
2023/08/01 05:24:13;;;;;;;2.00;0.82;;;20.90;62.70;;;;;;5092905;28;20314;-89
2023/08/01 05:26:46;;;;;;;2.33;0.70;;;20.80;61.80;;;;;;5077097;28;20192;-91
2023/08/01 05:29:18;;;;;;;3.20;0.80;;;20.80;63.60;;;;;;5074454;28;20585;-89
2023/08/01 05:31:50;;;;;;;1.92;0.68;;;20.70;65.60;;;;;;5078203;28;20190;-93
2023/08/01 05:34:22;;;;;;;3.30;0.75;;;20.80;67.80;;;;;;5089009;28;20196;-92
2023/08/01 05:36:54;;;;;;;3.90;1.35;;;20.70;68.80;;;;;;5094855;28;20199;-91
2023/08/01 05:39:26;;;;;;;4.15;1.00;;;20.70;70.50;;;;;;5076271;28;20212;-91
2023/08/01 05:41:59;;;;;;;1.80;1.00;;;20.60;71.60;;;;;;5075553;28;20582;-89
2023/08/01 05:44:32;;;;;;;2.38;0.60;;;20.70;71.80;;;;;;5073015;28;20200;-89
2023/08/01 05:47:03;;;;;;;2.92;0.80;;;20.70;72.40;;;;;;5074149;28;20219;-88
2023/08/01 05:49:34;;;;;;;2.20;0.70;;;20.70;73.70;;;;;;5079106;28;20214;-89
2023/08/01 05:52:05;;;;;;;2.63;0.65;;;20.70;74.60;;;;;;5094264;28;20225;-89
2023/08/01 05:54:36;;;;;;;2.15;0.80;;;20.70;75.10;;;;;;5098277;28;20199;-92
2023/08/01 05:57:13;;;;;;;1.90;0.77;;;20.70;75.10;;;;;;5097957;28;20200;-88
2023/08/01 05:59:44;;;;;;;3.40;1.00;;;20.70;75.20;;;;;;5092666;28;20536;-88
2023/08/01 06:02:15;;;;;;;6.53;0.80;;;20.60;75.50;;;;;;5083008;28;20200;-88
2023/08/01 06:04:46;;;;;;;4.10;0.80;;;20.60;76.10;;;;;;5085375;28;20709;-87
2023/08/01 06:07:22;;;;;;;2.92;0.80;;;20.60;76.00;;;;;;5093978;28;20666;-88
2023/08/01 06:09:54;;;;;;;2.50;0.90;;;20.70;75.60;;;;;;5089994;28;20255;-88
2023/08/01 06:12:28;;;;;;;2.63;0.85;;;20.70;76.50;;;;;;5077747;28;20198;-90
2023/08/01 06:14:59;;;;;;;2.95;0.65;;;20.60;77.50;;;;;;5093258;28;20235;-89
2023/08/01 06:17:34;;;;;;;3.47;0.80;;;20.60;78.40;;;;;;5104977;28;20207;-89
2023/08/01 06:20:05;;;;;;;1.95;0.60;;;20.70;79.10;;;;;;5118145;28;20246;-85
2023/08/01 06:22:37;;;;;;;3.50;0.73;;;20.80;79.70;;;;;;5118420;28;20202;-90
2023/08/01 06:25:10;;;;;;;3.13;0.70;;;20.80;81.30;;;;;;5102714;28;20239;-90
2023/08/01 06:27:43;;;;;;;1.63;0.60;;;21.00;82.50;;;;;;5084456;28;20196;-90
2023/08/01 06:30:16;;;;;;;2.22;0.70;;;21.00;82.50;;;;;;5072821;28;20219;-91
2023/08/01 06:32:47;;;;;;;3.28;1.00;;;20.90;83.00;;;;;;5075099;28;20186;-90
2023/08/01 06:35:18;;;;;;;3.45;1.13;;;21.10;83.20;;;;;;5090402;28;20198;-90
2023/08/01 06:37:50;;;;;;;1.77;1.10;;;21.10;82.80;;;;;;5088977;28;20656;-91
2023/08/01 06:40:22;;;;;;;2.30;0.82;;;21.00;82.20;;;;;;5094771;28;20588;-93
2023/08/01 06:42:56;;;;;;;2.08;0.70;;;20.90;82.20;;;;;;5094415;28;20227;-93
2023/08/01 06:45:28;;;;;;;2.38;0.82;;;20.70;82.80;;;;;;5092801;28;20191;-91
2023/08/01 06:48:00;;;;;;;3.03;1.00;;;20.60;83.10;;;;;;5074543;28;20192;-90
2023/08/01 06:50:32;;;;;;;3.35;0.90;;;20.50;84.30;;;;;;5074012;28;20234;-92
2023/08/01 06:53:05;;;;;;;1.90;0.73;;;20.40;85.10;;;;;;5083611;28;20210;-92
2023/08/01 06:55:36;;;;;;;2.50;1.00;;;20.20;85.90;;;;;;5093857;28;20198;-91
2023/08/01 06:58:12;;;;;;;2.75;0.80;;;20.10;86.80;;;;;;5090301;28;20205;-92
2023/08/01 07:00:44;;;;;;;2.85;0.82;;;20.00;87.90;;;;;;5096502;28;20218;-91
2023/08/01 07:03:16;;;;;;;2.30;0.70;;;19.80;88.30;;;;;;5109917;28;20245;-92
2023/08/01 07:05:47;;;;;;;2.55;0.90;;;19.70;89.50;;;;;;5101208;28;20191;-91
2023/08/01 07:08:21;;;;;;;3.08;0.80;;;19.60;90.50;;;;;;5092980;28;20199;-90
2023/08/01 07:10:53;;;;;;;3.22;1.10;;;19.50;91.30;;;;;;5073314;28;20698;-91
2023/08/01 07:13:29;;;;;;;2.15;0.90;;;19.40;91.90;;;;;;5074786;28;20199;-91
2023/08/01 07:16:01;;;;;;;2.90;1.00;;;19.40;92.60;;;;;;5075057;28;20196;-91
2023/08/01 07:18:33;;;;;;;2.30;0.80;;;19.30;93.30;;;;;;5095648;28;20195;-91
2023/08/01 07:21:26;;;;;;;1.50;0.70;;;19.20;94.00;;;;;;5107090;28;20199;-92
2023/08/01 07:24:19;;;;;;;2.58;0.93;;;19.10;94.60;;;;;;5095942;28;20221;-93
2023/08/01 07:26:53;;;;;;;4.32;1.17;;;19.00;95.70;;;;;;5097537;28;20251;-91
2023/08/01 07:29:28;;;;;;;4.05;1.02;;;19.00;96.70;;;;;;5098960;28;20209;-91
2023/08/01 07:32:00;;;;;;;3.70;1.25;;;18.80;97.60;;;;;;5105751;28;20206;-90
2023/08/01 07:34:31;;;;;;;2.45;0.93;;;18.80;98.80;;;;;;5106353;28;20195;-88
2023/08/01 07:37:02;;;;;;;4.30;1.10;;;18.70;99.80;;;;;;5098633;28;20262;-90
2023/08/01 07:39:34;;;;;;;4.50;1.20;;;18.60;99.90;;;;;;5089935;28;20387;-89
2023/08/01 07:42:06;;;;;;;4.70;1.25;;;18.60;99.90;;;;;;5076580;28;20237;-89
2023/08/01 07:44:39;;;;;;;2.10;0.90;;;18.60;99.90;;;;;;5092634;28;20677;-89
2023/08/01 07:47:11;;;;;;;2.88;1.00;;;18.60;99.90;;;;;;5093172;28;20206;-90
2023/08/01 07:49:43;;;;;;;3.22;1.00;;;18.50;99.90;;;;;;5093855;28;20717;-92
2023/08/01 07:52:13;;;;;;;3.17;1.00;;;18.50;99.90;;;;;;5093177;28;20207;-92
2023/08/01 07:54:44;;;;;;;3.78;0.90;;;18.50;99.90;;;;;;5092455;28;20199;-90
2023/08/01 07:57:16;;;;;;;5.60;1.13;;;18.40;99.90;;;;;;5093195;28;20191;-89
2023/08/01 07:59:50;;;;;;;2.70;1.10;;;18.40;99.90;;;;;;5092147;28;20654;-89
2023/08/01 08:02:21;;;;;;;2.85;1.17;;;18.30;99.90;;;;;;5092704;28;20206;-91
2023/08/01 08:04:52;;;;;;;3.22;0.93;;;18.30;99.90;;;;;;5082977;28;20245;-89
2023/08/01 08:07:23;;;;;;;3.00;1.10;;;18.30;99.90;;;;;;5073934;28;20200;-88
2023/08/01 08:09:55;;;;;;;2.50;0.88;;;18.30;99.90;;;;;;5074080;28;20226;-89
2023/08/01 08:12:25;;;;;;;2.60;0.95;;;18.20;99.90;;;;;;5075062;28;20199;-88
2023/08/01 08:14:58;;;;;;;3.22;1.20;;;18.20;99.90;;;;;;5071217;28;20557;-86
2023/08/01 08:17:29;;;;;;;2.50;1.02;;;18.20;99.90;;;;;;5071686;28;20659;-88
2023/08/01 08:20:00;;;;;;;1.50;1.00;;;18.20;99.90;;;;;;5073140;28;20714;-88
2023/08/01 08:22:32;;;;;;;1.60;0.82;;;18.20;99.90;;;;;;5073056;28;20574;-87
2023/08/01 08:25:03;;;;;;;3.38;1.30;;;18.10;99.90;;;;;;5073671;28;20246;-89
2023/08/01 08:27:43;;;;;;;3.97;1.15;;;18.10;99.90;;;;;;5074473;28;20228;-89
2023/08/01 08:30:18;;;;;;;2.55;1.10;;;18.10;99.90;;;;;;5091361;28;20234;-86
2023/08/01 08:32:49;;;;;;;2.53;0.98;;;18.10;99.90;;;;;;5072459;28;20208;-87
2023/08/01 08:35:20;;;;;;;3.75;1.52;;;18.10;99.90;;;;;;5071764;28;20200;-87
2023/08/01 08:37:52;;;;;;;3.10;1.65;;;18.10;99.90;;;;;;5074570;28;20191;-86
2023/08/01 08:40:29;;;;;;;6.38;3.70;;;18.00;99.90;;;;;;5075953;28;20204;-89
2023/08/01 08:43:03;;;;;;;5.03;2.05;;;18.00;99.90;;;;;;5081688;28;20221;-85
2023/08/01 08:45:42;;;;;;;3.85;1.42;;;18.00;99.90;;;;;;5082802;28;20219;-88
2023/08/01 08:48:19;;;;;;;2.55;1.20;;;18.00;99.90;;;;;;5095901;28;20251;-90
2023/08/01 08:50:51;;;;;;;4.07;1.60;;;18.00;99.90;;;;;;5103761;28;20219;-87
2023/08/01 08:53:22;;;;;;;4.65;1.60;;;18.00;99.90;;;;;;5109366;28;20216;-88
2023/08/01 08:55:57;;;;;;;5.15;1.90;;;18.00;99.90;;;;;;5104375;28;20213;-91
2023/08/01 08:58:38;;;;;;;8.40;5.45;;;17.90;99.90;;;;;;5076673;28;20207;-89
2023/08/01 09:01:12;;;;;;;9.57;6.97;;;18.00;99.90;;;;;;5077353;28;20724;-87
2023/08/01 09:03:44;;;;;;;7.45;5.80;;;17.90;99.90;;;;;;5075181;28;20310;-86
2023/08/01 09:06:18;;;;;;;7.50;5.43;;;17.90;99.90;;;;;;5082044;28;20192;-88
2023/08/01 09:08:54;;;;;;;5.75;4.15;;;17.90;99.90;;;;;;5079162;28;20195;-88
2023/08/01 09:11:25;;;;;;;5.20;3.38;;;17.90;99.90;;;;;;5088947;28;20689;-88
2023/08/01 09:13:57;;;;;;;4.47;2.80;;;17.90;99.90;;;;;;5098535;28;20203;-87
2023/08/01 09:16:31;;;;;;;6.45;3.10;;;17.90;99.90;;;;;;5088212;28;20192;-89
2023/08/01 09:19:02;;;;;;;4.50;2.45;;;17.80;99.90;;;;;;5086246;28;20666;-90
2023/08/01 09:21:37;;;;;;;5.05;2.28;;;17.80;99.90;;;;;;5097314;28;20207;-89
2023/08/01 09:24:15;;;;;;;4.43;2.22;;;17.70;99.90;;;;;;5095769;28;20245;-89
2023/08/01 09:26:47;;;;;;;5.22;2.55;;;17.70;99.90;;;;;;5085607;28;20195;-88
2023/08/01 09:29:21;;;;;;;5.68;3.00;;;17.70;99.90;;;;;;5074561;28;20202;-88
2023/08/01 09:31:54;;;;;;;4.25;3.20;;;17.60;99.90;;;;;;5082570;28;20219;-88
2023/08/01 09:34:26;;;;;;;6.07;3.35;;;17.50;99.90;;;;;;5077644;28;20255;-90
2023/08/01 09:37:02;;;;;;;7.47;2.80;;;17.50;99.90;;;;;;5093555;28;20203;-91
2023/08/01 09:39:34;;;;;;;7.57;3.40;;;17.50;99.90;;;;;;5094397;28;20197;-89
2023/08/01 09:42:06;;;;;;;8.80;3.85;;;17.40;99.90;;;;;;5096571;28;20253;-90
2023/08/01 09:44:43;;;;;;;6.82;3.00;;;17.40;99.90;;;;;;5098316;28;20658;-90
2023/08/01 09:47:21;;;;;;;4.20;2.70;;;17.50;99.90;;;;;;5100199;28;20209;-88
2023/08/01 09:49:54;;;;;;;6.25;2.90;;;17.40;99.90;;;;;;5095595;28;20201;-89
2023/08/01 09:52:34;;;;;;;7.80;3.25;;;17.40;99.90;;;;;;5094107;28;20199;-87
2023/08/01 09:55:05;;;;;;;6.43;3.40;;;17.40;99.90;;;;;;5075929;28;20208;-88
2023/08/01 09:57:40;;;;;;;9.15;3.80;;;17.50;99.90;;;;;;5075828;28;20580;-88
2023/08/01 10:00:15;;;;;;;5.50;3.42;;;17.50;99.90;;;;;;5089924;28;20258;-88
2023/08/01 10:02:56;;;;;;;5.80;3.38;;;17.50;99.90;;;;;;5099732;28;20195;-89
2023/08/01 10:05:27;;;;;;;7.22;2.90;;;17.50;99.90;;;;;;5101745;28;20661;-90
2023/08/01 10:08:10;;;;;;;3.42;2.45;;;17.50;99.90;;;;;;5104446;28;20200;-89
2023/08/01 10:10:43;;;;;;;4.28;2.70;;;17.50;99.90;;;;;;5089655;28;20258;-91
2023/08/01 10:13:19;;;;;;;4.65;2.58;;;17.60;99.90;;;;;;5076509;28;20207;-88
2023/08/01 10:15:54;;;;;;;3.97;2.60;;;17.60;99.90;;;;;;5075904;28;20206;-87
2023/08/01 10:18:28;;;;;;;6.72;3.05;;;17.60;99.90;;;;;;5077232;28;20200;-89
2023/08/01 10:21:08;;;;;;;6.05;3.75;;;17.60;99.90;;;;;;5076564;28;20274;-90
2023/08/01 10:23:40;;;;;;;5.03;3.38;;;17.50;99.90;;;;;;5078366;28;20199;-89
2023/08/01 10:29:20;;;;;;;4.40;2.95;;;17.40;99.90;;;;;;5066669;28;20199;-92
2023/08/01 10:32:10;;;;;;;4.75;2.75;;;17.40;99.90;;;;;;5073826;28;20652;-90
2023/08/01 10:34:57;;;;;;;6.20;2.50;;;17.30;99.90;;;;;;5072796;28;20212;-88
2023/08/01 10:37:58;;;;;;;4.78;2.20;;;17.40;99.90;;;;;;5073616;28;20580;-90
2023/08/01 10:40:38;;;;;;;6.78;2.20;;;17.30;99.90;;;;;;5067241;28;20199;-90
2023/08/01 10:43:09;;;;;;;3.72;1.88;;;17.40;99.90;;;;;;5073447;28;20241;-88
2023/08/01 10:45:44;;;;;;;3.67;1.70;;;17.40;99.90;;;;;;5083398;28;20606;-89
2023/08/01 10:48:18;;;;;;;4.18;2.25;;;17.40;99.90;;;;;;5103041;28;20202;-85
2023/08/01 10:51:09;;;;;;;4.72;1.88;;;17.40;99.90;;;;;;5090339;28;20223;-87
2023/08/01 10:53:43;;;;;;;4.00;1.80;;;17.40;99.90;;;;;;5074316;28;20196;-90
2023/08/01 10:56:21;;;;;;;4.95;2.00;;;17.30;99.90;;;;;;5076521;28;20225;-90
2023/08/01 10:58:52;;;;;;;4.20;2.00;;;17.30;99.90;;;;;;5075890;28;20227;-89
2023/08/01 11:01:22;;;;;;;3.67;1.88;;;17.30;99.90;;;;;;5076206;28;20216;-89
2023/08/01 11:07:06;;;;;;;4.75;2.13;;;17.20;99.90;;;;;;5074790;28;20203;-90
2023/08/01 11:09:50;;;;;;;5.68;2.20;;;17.20;99.90;;;;;;5081268;28;20259;-90
2023/08/01 11:12:24;;;;;;;4.40;2.20;;;17.10;99.90;;;;;;5092031;28;20222;-90
2023/08/01 11:15:12;;;;;;;;;;;;;;;;;;;;;
2023/08/01 11:17:59;;;;;;;4.80;1.80;;;17.10;99.90;;;;;;5080730;28;20211;-91
2023/08/01 11:20:30;;;;;;;4.10;1.90;;;17.10;99.90;;;;;;5102576;28;20206;-90
2023/08/01 11:23:04;;;;;;;5.43;2.05;;;17.00;99.90;;;;;;5100382;28;20205;-92
2023/08/01 11:25:37;;;;;;;3.58;1.83;;;17.00;99.90;;;;;;5092826;28;20309;-90
2023/08/01 11:28:09;;;;;;;4.88;1.65;;;17.00;99.90;;;;;;5092578;28;20568;-90
2023/08/01 11:30:40;;;;;;;5.82;1.70;;;17.00;99.90;;;;;;5096559;28;20329;-90
2023/08/01 11:33:23;;;;;;;3.50;1.50;;;17.00;99.90;;;;;;5097149;28;20203;-90
2023/08/01 11:36:03;;;;;;;6.03;1.75;;;17.00;99.90;;;;;;5094646;28;20248;-89
2023/08/01 11:38:38;;;;;;;3.63;1.50;;;17.00;99.90;;;;;;5096318;28;20199;-90
2023/08/01 11:41:10;;;;;;;3.75;1.30;;;17.00;99.90;;;;;;5094606;28;20200;-88
2023/08/01 11:43:45;;;;;;;3.47;1.50;;;17.00;99.90;;;;;;5093622;28;20199;-88
2023/08/01 11:46:16;;;;;;;4.25;1.40;;;17.00;99.90;;;;;;5095880;28;20202;-90
2023/08/01 11:48:50;;;;;;;4.82;1.60;;;17.00;99.90;;;;;;5099209;28;20183;-88
2023/08/01 11:51:21;;;;;;;3.03;1.40;;;17.00;99.90;;;;;;5096024;28;20313;-90
2023/08/01 11:54:02;;;;;;;4.53;1.48;;;17.00;99.90;;;;;;5095674;28;20199;-91
2023/08/01 11:56:38;;;;;;;3.72;1.42;;;17.00;99.90;;;;;;5097028;28;20202;-91
2023/08/01 11:59:16;;;;;;;5.97;1.77;;;16.90;99.90;;;;;;5080050;28;20191;-89
2023/08/01 12:01:50;;;;;;;5.18;1.50;;;16.90;99.90;;;;;;5076285;28;20196;-89
2023/08/01 12:04:29;;;;;;;6.72;2.15;;;16.90;99.90;;;;;;5073817;28;20224;-88
2023/08/01 12:07:01;;;;;;;7.13;2.70;;;16.80;99.90;;;;;;5077700;28;20278;-91
2023/08/01 12:09:40;;;;;;;6.30;2.70;;;16.70;99.90;;;;;;5078158;28;20204;-89
2023/08/01 12:12:14;;;;;;;7.93;4.15;;;16.60;99.90;;;;;;5076850;28;20223;-88
2023/08/01 12:14:49;;;;;;;7.82;3.40;;;16.50;99.90;;;;;;5089445;28;20295;-87
2023/08/01 12:17:20;;;;;;;6.72;3.15;;;16.50;99.90;;;;;;5094974;28;20188;-90
2023/08/01 12:19:51;;;;;;;6.35;3.17;;;16.50;99.90;;;;;;5095422;28;20199;-89
2023/08/01 12:22:22;;;;;;;6.47;2.70;;;16.30;99.90;;;;;;5096658;28;20204;-90
2023/08/01 12:24:55;;;;;;;5.55;2.85;;;16.30;99.90;;;;;;5101705;28;20214;-89
2023/08/01 12:27:26;;;;;;;6.55;2.78;;;16.20;99.90;;;;;;5082250;28;20578;-87
2023/08/01 12:29:57;;;;;;;5.28;2.85;;;16.20;99.90;;;;;;5077584;28;20202;-88
2023/08/01 12:32:28;;;;;;;5.57;2.88;;;16.20;99.90;;;;;;5076950;28;20224;-89
2023/08/01 12:35:01;;;;;;;8.15;3.10;;;16.10;99.90;;;;;;5090771;28;20228;-88
2023/08/01 12:37:31;;;;;;;4.53;2.70;;;16.10;99.90;;;;;;5091203;28;20666;-89
2023/08/01 12:40:15;;;;;;;7.03;3.17;;;16.10;99.90;;;;;;5102981;28;20238;-87
2023/08/01 12:42:47;;;;;;;6.95;3.17;;;16.10;99.90;;;;;;5098065;28;20207;-88
2023/08/01 12:45:18;;;;;;;7.35;3.97;;;16.00;99.90;;;;;;5082020;28;20219;-92
2023/08/01 12:47:49;;;;;;;8.73;3.90;;;16.00;99.90;;;;;;5078524;28;20271;-90
2023/08/01 12:50:24;;;;;;;9.27;4.05;;;16.00;99.90;;;;;;5079488;28;20198;-89
2023/08/01 12:52:54;;;;;;;9.63;4.68;;;16.00;99.90;;;;;;5082282;28;20211;-90
2023/08/01 12:55:28;;;;;;;7.05;3.60;;;15.90;99.90;;;;;;5096769;28;20196;-90
2023/08/01 12:58:00;;;;;;;7.43;4.03;;;15.80;99.90;;;;;;5099432;28;20673;-90
2023/08/01 13:00:32;;;;;;;7.25;3.45;;;15.80;99.90;;;;;;5090568;28;20192;-91
2023/08/01 13:03:08;;;;;;;6.55;3.90;;;15.70;99.90;;;;;;5082074;28;20196;-90
2023/08/01 13:05:40;;;;;;;7.40;3.78;;;15.70;99.90;;;;;;5080881;28;20267;-92
2023/08/01 13:08:18;;;;;;;6.20;3.38;;;15.60;99.90;;;;;;5082300;28;20249;-91
2023/08/01 13:10:54;;;;;;;8.65;3.65;;;15.60;99.90;;;;;;5080614;28;20194;-90
2023/08/01 13:13:25;;;;;;;5.53;3.22;;;15.60;99.90;;;;;;5083096;28;20205;-90
2023/08/01 13:16:02;;;;;;;7.50;3.47;;;15.60;99.90;;;;;;5092458;28;20199;-90
2023/08/01 13:18:35;;;;;;;6.00;3.67;;;15.60;99.90;;;;;;5101464;28;20206;-90
2023/08/01 13:21:10;;;;;;;5.70;3.33;;;15.60;99.90;;;;;;5100924;28;20254;-89
2023/08/01 13:23:41;;;;;;;10.77;3.70;;;15.50;99.90;;;;;;5077409;28;20200;-89
2023/08/01 13:26:15;;;;;;;5.22;3.60;;;15.50;99.90;;;;;;5077583;28;20218;-90